Time;durP1;ratioP1;P1;durP2;ratioP2;P2;SDS_P1;SDS_P2;PMS_P1;PMS_P2;Temp;Humidity;BMP_temperature;BMP_pressure;BME280_temperature;BME280_humidity;BME280_pressure;Samples;Min_cycle;Max_cycle;Signal;HPM_P1;HPM_P2
2023/09/24 00:01:02;;;;;;;;;;;19.50;93.40;;;;;;5055877;28;19955;-55
2023/09/24 00:03:27;;;;;;;;;;;19.40;93.40;;;;;;5073903;28;19952;-52
2023/09/24 00:05:53;;;;;;;;;;;19.40;93.40;;;;;;5074571;28;19908;-55
2023/09/24 00:08:19;;;;;;;;;;;19.40;93.40;;;;;;5074782;28;19913;-53
2023/09/24 00:10:52;;;;;;;;;;;19.40;93.40;;;;;;5074618;28;20283;-52
2023/09/24 00:13:21;;;;;;;;;;;19.40;93.40;;;;;;5073970;28;20240;-52
2023/09/24 00:15:49;;;;;;;;;;;19.40;93.40;;;;;;5074564;28;19913;-53
2023/09/24 00:18:15;;;;;;;;;;;19.40;93.40;;;;;;5074559;28;19954;-54
2023/09/24 00:20:41;;;;;;;;;;;19.40;93.40;;;;;;5074938;28;19918;-55
2023/09/24 00:23:08;;;;;;;;;;;19.40;93.40;;;;;;5073599;28;19920;-54
2023/09/24 00:25:33;;;;;;;;;;;19.40;93.40;;;;;;5074542;28;19908;-53
2023/09/24 00:27:59;;;;;;;;;;;19.40;93.40;;;;;;5074164;28;20359;-52
2023/09/24 00:30:24;;;;;;;;;;;19.40;93.40;;;;;;5074087;28;19917;-55
2023/09/24 00:32:53;;;;;;;;;;;19.40;93.40;;;;;;5055818;28;19912;-51
2023/09/24 00:35:19;;;;;;;;;;;19.40;93.40;;;;;;5074292;28;19908;-55
2023/09/24 00:37:44;;;;;;;;;;;19.40;93.40;;;;;;5073768;28;19954;-55
2023/09/24 00:40:11;;;;;;;;;;;19.40;93.40;;;;;;5074035;28;19915;-53
2023/09/24 00:42:36;;;;;;;;;;;19.40;93.40;;;;;;5073159;28;19912;-54
2023/09/24 00:45:03;;;;;;;;;;;19.40;93.40;;;;;;5073952;28;20007;-55
2023/09/24 00:47:29;;;;;;;;;;;19.40;93.40;;;;;;5074254;28;19909;-54
2023/09/24 00:49:54;;;;;;;;;;;19.40;93.40;;;;;;5073582;28;19927;-52
2023/09/24 00:52:21;;;;;;;;;;;19.40;93.40;;;;;;5073868;28;19999;-51
2023/09/24 00:54:46;;;;;;;;;;;19.40;93.40;;;;;;5073728;28;19919;-53
2023/09/24 00:57:12;;;;;;;;;;;19.40;93.40;;;;;;5073861;28;19912;-54
2023/09/24 00:59:38;;;;;;;;;;;19.40;93.40;;;;;;5074384;28;19908;-55
2023/09/24 01:02:04;;;;;;;;;;;19.40;93.40;;;;;;5072925;28;19965;-54
2023/09/24 01:04:29;;;;;;;;;;;19.40;93.40;;;;;;5072954;28;19995;-55
2023/09/24 01:06:57;;;;;;;;;;;19.40;93.40;;;;;;5074118;28;20474;-53
2023/09/24 01:09:22;;;;;;;;;;;19.40;93.40;;;;;;5073887;28;19908;-53
2023/09/24 01:11:52;;;;;;;;;;;19.40;93.40;;;;;;5073190;28;19944;-53
2023/09/24 01:14:18;;;;;;;;;;;19.40;93.40;;;;;;5073780;28;19990;-53
2023/09/24 01:16:44;;;;;;;;;;;19.40;93.50;;;;;;5073706;28;20292;-53
2023/09/24 01:19:09;;;;;;;;;;;19.40;93.40;;;;;;5073651;28;19909;-52
2023/09/24 01:21:36;;;;;;;;;;;19.40;93.50;;;;;;5073034;28;19919;-52
2023/09/24 01:24:03;;;;;;;;;;;19.40;93.50;;;;;;5073562;28;19916;-51
2023/09/24 01:26:28;;;;;;;;;;;19.40;93.50;;;;;;5072590;28;19912;-53
2023/09/24 01:28:54;;;;;;;;;;;19.40;93.50;;;;;;5073412;28;20413;-53
2023/09/24 01:31:20;;;;;;;;;;;19.40;93.50;;;;;;5073364;28;19924;-52
2023/09/24 01:33:47;;;;;;;;;;;19.40;93.50;;;;;;5055176;28;19913;-54
2023/09/24 01:36:13;;;;;;;;;;;19.40;93.70;;;;;;5073389;28;19912;-54
2023/09/24 01:38:40;;;;;;;;;;;19.40;93.50;;;;;;5073723;28;19915;-54
2023/09/24 01:41:10;;;;;;;;;;;19.40;93.50;;;;;;5073337;28;19908;-55
2023/09/24 01:43:36;;;;;;;;;;;19.40;93.50;;;;;;5073042;28;19913;-55
2023/09/24 01:46:05;;;;;;;;;;;19.40;93.50;;;;;;5073670;28;19916;-55
2023/09/24 01:48:32;;;;;;;;;;;19.40;93.50;;;;;;5074376;28;19970;-52
2023/09/24 01:50:58;;;;;;;;;;;19.40;93.50;;;;;;5077276;28;20005;-54
2023/09/24 01:53:25;;;;;;;;;;;19.40;93.50;;;;;;5076513;28;19916;-55
2023/09/24 01:55:50;;;;;;;;;;;19.40;93.50;;;;;;5077258;28;19916;-53
2023/09/24 01:58:16;;;;;;;;;;;19.40;93.40;;;;;;5077150;28;20271;-55
2023/09/24 02:00:42;;;;;;;;;;;19.40;93.40;;;;;;5076117;28;19912;-53
2023/09/24 02:03:10;;;;;;;;;;;19.40;93.40;;;;;;5076079;28;20352;-54
2023/09/24 02:05:36;;;;;;;;;;;19.40;93.40;;;;;;5077128;28;19909;-55
2023/09/24 02:08:06;;;;;;;;;;;19.40;93.40;;;;;;5077103;28;19908;-52
2023/09/24 02:10:31;;;;;;;;;;;19.40;93.40;;;;;;5076442;28;19924;-55
2023/09/24 02:12:57;;;;;;;;;;;19.40;93.40;;;;;;5076703;28;20355;-52
2023/09/24 02:15:23;;;;;;;;;;;19.30;93.40;;;;;;5076882;28;19908;-52
2023/09/24 02:17:48;;;;;;;;;;;19.40;93.40;;;;;;5076780;28;19908;-55
2023/09/24 02:20:18;;;;;;;;;;;19.40;93.40;;;;;;5076748;28;19912;-55
2023/09/24 02:22:48;;;;;;;;;;;19.30;93.40;;;;;;5075985;28;19912;-55
2023/09/24 02:25:14;;;;;;;;;;;19.40;93.40;;;;;;5076758;28;19916;-54
2023/09/24 02:27:40;;;;;;;;;;;19.30;93.40;;;;;;5058822;28;19958;-54
2023/09/24 02:30:06;;;;;;;;;;;19.30;93.60;;;;;;5076273;28;19924;-52
2023/09/24 02:32:32;;;;;;;;;;;19.40;93.40;;;;;;5057929;28;20007;-54
2023/09/24 02:34:57;;;;;;;;;;;19.40;93.40;;;;;;5076645;28;19997;-54
2023/09/24 02:37:27;;;;;;;;;;;19.40;93.40;;;;;;5076489;28;20266;-54
2023/09/24 02:39:53;;;;;;;;;;;19.40;93.40;;;;;;5076197;28;20371;-55
2023/09/24 02:42:18;;;;;;;;;;;19.30;93.40;;;;;;5075955;28;20007;-56
2023/09/24 02:44:44;;;;;;;;;;;19.30;93.40;;;;;;5076410;28;20321;-56
2023/09/24 02:47:09;;;;;;;;;;;19.30;93.40;;;;;;5075972;28;20058;-52
2023/09/24 02:49:35;;;;;;;;;;;19.30;93.40;;;;;;5075884;28;20278;-55
2023/09/24 02:52:01;;;;;;;;;;;19.30;93.40;;;;;;5075404;28;19912;-56
2023/09/24 02:54:27;;;;;;;;;;;19.30;93.40;;;;;;5076231;28;19909;-54
2023/09/24 02:56:52;;;;;;;;;;;19.30;93.40;;;;;;5076025;28;20370;-54
2023/09/24 02:59:18;;;;;;;;;;;19.30;93.40;;;;;;5075980;28;19908;-55
2023/09/24 03:01:48;;;;;;;;;;;19.30;93.40;;;;;;5074483;28;20290;-56
2023/09/24 03:04:15;;;;;;;;;;;19.30;93.40;;;;;;5075765;28;19908;-55
2023/09/24 03:06:41;;;;;;;;;;;19.30;93.40;;;;;;5076001;28;19908;-53
2023/09/24 03:09:10;;;;;;;;;;;19.30;93.40;;;;;;5075513;28;19912;-53
2023/09/24 03:11:35;;;;;;;;;;;19.30;93.40;;;;;;5075036;28;19948;-54
2023/09/24 03:14:01;;;;;;;;;;;19.30;93.50;;;;;;5075585;28;20428;-56
2023/09/24 03:16:28;;;;;;;;;;;19.30;93.40;;;;;;5075496;28;19921;-56
2023/09/24 03:18:54;;;;;;;;;;;19.30;93.40;;;;;;5075671;28;19909;-54
2023/09/24 03:21:20;;;;;;;;;;;19.30;93.40;;;;;;5074565;28;19913;-53
2023/09/24 03:23:45;;;;;;;;;;;19.30;93.40;;;;;;5075940;28;19909;-53
2023/09/24 03:26:14;;;;;;;;;;;19.30;93.40;;;;;;5075551;28;20428;-53
2023/09/24 03:28:43;;;;;;;;;;;19.30;93.40;;;;;;5075431;28;19908;-55
2023/09/24 03:31:15;;;;;;;;;;;19.30;93.40;;;;;;5074663;28;19912;-55
2023/09/24 03:33:40;;;;;;;;;;;19.30;93.40;;;;;;5075329;28;19912;-55
2023/09/24 03:36:10;;;;;;;;;;;19.30;93.40;;;;;;5075120;28;19915;-54
2023/09/24 03:38:36;;;;;;;;;;;19.30;93.40;;;;;;5075672;28;19908;-54
2023/09/24 03:41:02;;;;;;;;;;;19.30;93.40;;;;;;5075334;28;19962;-56
2023/09/24 03:43:27;;;;;;;;;;;19.30;93.40;;;;;;5074164;28;19916;-54
2023/09/24 03:45:52;;;;;;;;;;;19.20;93.30;;;;;;5074960;28;19944;-51
2023/09/24 03:48:19;;;;;;;;;;;19.30;93.40;;;;;;5074991;28;19928;-54
2023/09/24 03:50:44;;;;;;;;;;;19.30;93.40;;;;;;5075147;28;19918;-54
2023/09/24 03:53:09;;;;;;;;;;;19.30;93.40;;;;;;5074585;28;19916;-54
2023/09/24 03:55:35;;;;;;;;;;;19.30;93.40;;;;;;5074705;28;19915;-56
2023/09/24 03:58:01;;;;;;;;;;;19.30;93.30;;;;;;5074897;28;19951;-54
2023/09/24 04:00:27;;;;;;;;;;;19.30;93.40;;;;;;5056158;28;20000;-54
2023/09/24 04:02:52;;;;;;;;;;;19.30;93.40;;;;;;5074795;28;20365;-54
2023/09/24 04:05:19;;;;;;;;;;;19.30;93.40;;;;;;5069920;28;20005;-53
2023/09/24 04:07:46;;;;;;;;;;;19.30;93.40;;;;;;5072982;28;19916;-54
2023/09/24 04:10:14;;;;;;;;;;;19.30;93.40;;;;;;5079077;28;19912;-55
2023/09/24 04:12:43;;;;;;;;;;;19.30;93.40;;;;;;5094265;28;19961;-53
2023/09/24 04:15:09;;;;;;;;;;;19.30;93.40;;;;;;5088969;28;19919;-52
2023/09/24 04:17:39;;;;;;;;;;;19.20;93.30;;;;;;5063641;28;19912;-54
2023/09/24 04:20:06;;;;;;;;;;;19.20;93.30;;;;;;5087809;28;20002;-55
2023/09/24 04:22:32;;;;;;;;;;;19.20;93.30;;;;;;5072637;28;19973;-56
2023/09/24 04:24:57;;;;;;;;;;;19.20;93.30;;;;;;5074202;28;19908;-54
2023/09/24 04:27:23;;;;;;;;;;;19.20;93.30;;;;;;5056549;28;20012;-52
2023/09/24 04:29:49;;;;;;;;;;;19.30;93.30;;;;;;5074079;28;19913;-53
2023/09/24 04:32:15;;;;;;;;;;;19.20;93.30;;;;;;5062369;28;19916;-54
2023/09/24 04:34:41;;;;;;;;;;;19.20;93.20;;;;;;5094457;28;19909;-54
2023/09/24 04:37:06;;;;;;;;;;;19.20;93.20;;;;;;5094513;28;19965;-54
2023/09/24 04:39:32;;;;;;;;;;;19.20;93.30;;;;;;5094116;28;19953;-53
2023/09/24 04:41:58;;;;;;;;;;;19.20;93.30;;;;;;5084167;28;19912;-55
2023/09/24 04:44:24;;;;;;;;;;;19.20;93.30;;;;;;5087690;28;19912;-55
2023/09/24 04:46:49;;;;;;;;;;;19.20;93.30;;;;;;5077934;28;19931;-54
2023/09/24 04:49:15;;;;;;;;;;;19.20;93.30;;;;;;5080872;28;19920;-55
2023/09/24 04:51:40;;;;;;;;;;;19.20;93.30;;;;;;5090271;28;19978;-54
2023/09/24 04:54:06;;;;;;;;;;;19.20;93.30;;;;;;5074357;28;19920;-51
2023/09/24 04:56:31;;;;;;;;;;;19.20;92.70;;;;;;5073840;28;20363;-53
2023/09/24 04:58:57;;;;;;;;;;;19.20;92.80;;;;;;5073786;28;19999;-52
2023/09/24 05:01:23;;;;;;;;;;;19.20;92.90;;;;;;5074970;28;19970;-55
2023/09/24 05:03:49;;;;;;;;;;;19.20;93.00;;;;;;5094147;28;20301;-55
2023/09/24 05:06:15;;;;;;;;;;;19.20;92.90;;;;;;5076005;28;19908;-53
2023/09/24 05:08:41;;;;;;;;;;;19.20;92.90;;;;;;5076042;28;20355;-54
2023/09/24 05:11:09;;;;;;;;;;;19.20;93.00;;;;;;5082059;28;19978;-54
2023/09/24 05:13:35;;;;;;;;;;;19.20;93.00;;;;;;5079635;28;20276;-51
2023/09/24 05:16:01;;;;;;;;;;;19.20;93.00;;;;;;5071926;28;19913;-55
2023/09/24 05:18:27;;;;;;;;;;;19.10;93.00;;;;;;5072499;28;19920;-53
2023/09/24 05:20:53;;;;;;;;;;;19.20;93.00;;;;;;5073864;28;19908;-55
2023/09/24 05:23:18;;;;;;;;;;;19.20;93.10;;;;;;5084038;28;19935;-55
2023/09/24 05:25:44;;;;;;;;;;;19.20;93.00;;;;;;5098095;28;19915;-53
2023/09/24 05:28:09;;;;;;;;;;;19.10;93.00;;;;;;5086646;28;19915;-54
2023/09/24 05:30:35;;;;;;;;;;;19.10;93.10;;;;;;5077454;28;19916;-53
2023/09/24 05:33:01;;;;;;;;;;;19.10;93.10;;;;;;5077728;28;20363;-55
2023/09/24 05:35:26;;;;;;;;;;;19.10;93.10;;;;;;5059774;28;19959;-56
2023/09/24 05:37:52;;;;;;;;;;;19.10;93.10;;;;;;5076702;28;19954;-53
2023/09/24 05:40:17;;;;;;;;;;;19.10;93.10;;;;;;5084748;28;19965;-54
2023/09/24 05:42:44;;;;;;;;;;;19.10;93.20;;;;;;5097734;28;19908;-54
2023/09/24 05:45:10;;;;;;;;;;;19.10;93.20;;;;;;5097392;28;20355;-53
2023/09/24 05:47:36;;;;;;;;;;;19.10;93.20;;;;;;5097559;28;19908;-53
2023/09/24 05:50:04;;;;;;;;;;;19.10;93.20;;;;;;5076199;28;20358;-54
2023/09/24 05:52:30;;;;;;;;;;;19.10;93.20;;;;;;5076977;28;19918;-55
2023/09/24 05:54:56;;;;;;;;;;;19.10;93.20;;;;;;5077267;28;19909;-54
2023/09/24 05:57:21;;;;;;;;;;;19.10;93.20;;;;;;5084929;28;19908;-53
2023/09/24 05:59:47;;;;;;;;;;;19.10;93.30;;;;;;5079481;28;20371;-55
2023/09/24 06:02:12;;;;;;;;;;;19.10;93.30;;;;;;5058611;28;19920;-56
2023/09/24 06:04:38;;;;;;;;;;;19.10;93.30;;;;;;5077013;28;19915;-52
2023/09/24 06:07:05;;;;;;;;;;;19.10;93.30;;;;;;5077370;28;19915;-53
2023/09/24 06:09:31;;;;;;;;;;;19.10;93.30;;;;;;5094989;28;19908;-55
2023/09/24 06:11:56;;;;;;;;;;;19.00;93.30;;;;;;5087666;28;20004;-55
2023/09/24 06:14:22;;;;;;;;;;;19.10;93.30;;;;;;5062694;28;20401;-53
2023/09/24 06:16:47;;;;;;;;;;;19.00;93.30;;;;;;5076705;28;19920;-54
2023/09/24 06:19:13;;;;;;;;;;;19.10;93.40;;;;;;5076796;28;20364;-54
2023/09/24 06:21:38;;;;;;;;;;;19.10;93.40;;;;;;5076376;28;19952;-53
2023/09/24 06:24:04;;;;;;;;;;;19.10;93.40;;;;;;5074396;28;19954;-54
2023/09/24 06:26:32;;;;;;;;;;;19.00;93.40;;;;;;5073530;28;19916;-54
2023/09/24 06:28:58;;;;;;;;;;;19.10;93.40;;;;;;5082112;28;19916;-55
2023/09/24 06:31:23;;;;;;;;;;;19.10;93.40;;;;;;5076403;28;19916;-54
2023/09/24 06:33:49;;;;;;;;;;;19.00;93.40;;;;;;5056976;28;19916;-54
2023/09/24 06:36:16;;;;;;;;;;;19.00;93.40;;;;;;5076295;28;19955;-52
2023/09/24 06:38:41;;;;;;;;;;;19.00;93.40;;;;;;5074489;28;19924;-52
2023/09/24 06:41:07;;;;;;;;;;;19.00;93.40;;;;;;5076817;28;19916;-52
2023/09/24 06:43:33;;;;;;;;;;;19.00;93.40;;;;;;5076020;28;19908;-54
2023/09/24 06:46:01;;;;;;;;;;;19.00;93.40;;;;;;5076273;28;19915;-56
2023/09/24 06:48:26;;;;;;;;;;;19.00;93.40;;;;;;5082992;28;19920;-56
2023/09/24 06:50:53;;;;;;;;;;;19.00;93.40;;;;;;5096366;28;20275;-52
2023/09/24 06:53:19;;;;;;;;;;;19.00;93.40;;;;;;5096807;28;19909;-55
2023/09/24 06:55:45;;;;;;;;;;;19.00;93.40;;;;;;5096331;28;19915;-55
2023/09/24 06:58:11;;;;;;;;;;;19.00;93.40;;;;;;5087946;28;19912;-55
2023/09/24 07:00:37;;;;;;;;;;;19.00;93.40;;;;;;5075859;28;20259;-55
2023/09/24 07:03:02;;;;;;;;;;;19.00;93.50;;;;;;5074792;28;19919;-52
2023/09/24 07:05:29;;;;;;;;;;;19.00;93.50;;;;;;5084414;28;19931;-55
2023/09/24 07:07:54;;;;;;;;;;;19.00;93.50;;;;;;5093977;28;20408;-56
2023/09/24 07:10:23;;;;;;;;;;;19.00;93.50;;;;;;5074106;28;19921;-52
2023/09/24 07:12:48;;;;;;;;;;;19.00;93.50;;;;;;5074136;28;19996;-55
2023/09/24 07:15:14;;;;;;;;;;;19.00;93.50;;;;;;5073417;28;19970;-54
2023/09/24 07:17:40;;;;;;;;;;;19.00;93.50;;;;;;5082515;28;19972;-57
2023/09/24 07:20:07;;;;;;;;;;;19.00;93.50;;;;;;5087413;28;19913;-55
2023/09/24 07:22:32;;;;;;;;;;;19.00;93.60;;;;;;5093544;28;19916;-55
2023/09/24 07:24:58;;;;;;;;;;;19.00;93.40;;;;;;5084900;28;19908;-53
2023/09/24 07:27:24;;;;;;;;;;;18.90;93.40;;;;;;5079998;28;20003;-55
2023/09/24 07:29:50;;;;;;;;;;;18.90;93.40;;;;;;5090222;28;20263;-56
2023/09/24 07:32:15;;;;;;;;;;;18.90;93.30;;;;;;5092950;28;19912;-54
2023/09/24 07:34:41;;;;;;;;;;;18.90;93.30;;;;;;5095087;28;19908;-56
2023/09/24 07:37:08;;;;;;;;;;;18.90;93.30;;;;;;5077938;28;19912;-52
2023/09/24 07:39:34;;;;;;;;;;;18.90;93.30;;;;;;5092190;28;19912;-55
2023/09/24 07:42:00;;;;;;;;;;;18.90;93.30;;;;;;5092080;28;19922;-54
2023/09/24 07:44:26;;;;;;;;;;;18.90;93.30;;;;;;5095423;28;20343;-56
2023/09/24 07:46:52;;;;;;;;;;;18.90;93.40;;;;;;5088837;28;19919;-55
2023/09/24 07:49:17;;;;;;;;;;;18.90;93.40;;;;;;5079256;28;19931;-53
2023/09/24 07:51:43;;;;;;;;;;;18.90;93.40;;;;;;5076021;28;19920;-56
2023/09/24 07:54:09;;;;;;;;;;;18.90;93.40;;;;;;5094580;28;20283;-56
2023/09/24 07:56:34;;;;;;;;;;;18.90;93.40;;;;;;5084965;28;19912;-57
2023/09/24 07:59:04;;;;;;;;;;;18.90;93.50;;;;;;5093739;28;20347;-53
2023/09/24 08:01:30;;;;;;;;;;;18.90;93.50;;;;;;5086830;28;19980;-54
2023/09/24 08:03:55;;;;;;;;;;;18.90;93.50;;;;;;5093701;28;20341;-54
2023/09/24 08:06:21;;;;;;;;;;;18.90;93.50;;;;;;5086426;28;19919;-56
2023/09/24 08:08:46;;;;;;;;;;;18.90;93.60;;;;;;5087625;28;20309;-56
2023/09/24 08:11:12;;;;;;;;;;;18.90;93.50;;;;;;5094438;28;19920;-56
2023/09/24 08:13:37;;;;;;;;;;;18.90;93.40;;;;;;5093064;28;19944;-56
2023/09/24 08:16:03;;;;;;;;;;;18.90;93.40;;;;;;5089849;28;20343;-55
2023/09/24 08:18:29;;;;;;;;;;;18.90;93.50;;;;;;5088227;28;19916;-53
2023/09/24 08:20:54;;;;;;;;;;;18.90;93.60;;;;;;5089896;28;19966;-56
2023/09/24 08:23:21;;;;;;;;;;;18.90;93.60;;;;;;5094516;28;19915;-54
2023/09/24 08:25:49;;;;;;;;;;;18.90;93.60;;;;;;5094506;28;19908;-56
2023/09/24 08:28:15;;;;;;;;;;;18.90;93.40;;;;;;5078825;28;19918;-56
2023/09/24 08:30:40;;;;;;;;;;;18.90;93.30;;;;;;5077700;28;20432;-56
2023/09/24 08:33:07;;;;;;;;;;;18.90;93.40;;;;;;5081084;28;19957;-55
2023/09/24 08:35:34;;;;;;;;;;;18.90;93.20;;;;;;5094306;28;20028;-56
2023/09/24 08:38:00;;;;;;;;;;;18.90;93.30;;;;;;5088109;28;19965;-56
2023/09/24 08:40:28;;;;;;;;;;;18.90;93.50;;;;;;5073773;28;19909;-55
2023/09/24 08:42:54;;;;;;;;;;;18.90;93.50;;;;;;5071412;28;19982;-56
2023/09/24 08:45:20;;;;;;;;;;;18.90;93.40;;;;;;5086599;28;19920;-55
2023/09/24 08:47:46;;;;;;;;;;;18.90;93.60;;;;;;5089004;28;19919;-55
2023/09/24 08:50:12;;;;;;;;;;;18.90;93.70;;;;;;5089607;28;20363;-55
2023/09/24 08:52:39;;;;;;;;;;;18.90;93.50;;;;;;5093802;28;19912;-55
2023/09/24 08:55:09;;;;;;;;;;;18.90;93.30;;;;;;5090260;28;19995;-55
2023/09/24 08:57:38;;;;;;;;;;;18.90;93.20;;;;;;5076824;28;19913;-55
2023/09/24 09:00:06;;;;;;;;;;;18.90;93.10;;;;;;5055757;28;19962;-54
2023/09/24 09:02:34;;;;;;;;;;;18.90;93.10;;;;;;5071917;28;19932;-54
2023/09/24 09:05:00;;;;;;;;;;;18.90;93.40;;;;;;5092064;28;19963;-55
2023/09/24 09:07:25;;;;;;;;;;;18.90;93.40;;;;;;5086970;28;19939;-57
2023/09/24 09:09:55;;;;;;;;;;;18.90;93.30;;;;;;5073816;28;19908;-57
2023/09/24 09:12:21;;;;;;;;;;;18.90;93.40;;;;;;5073893;28;19909;-56
2023/09/24 09:14:47;;;;;;;;;;;18.90;93.40;;;;;;5073503;28;19927;-55
2023/09/24 09:17:12;;;;;;;;;;;18.90;93.20;;;;;;5073489;28;19983;-56
2023/09/24 09:19:56;;;;;;;;;;;18.90;93.20;;;;;;5078459;28;20354;-55
2023/09/24 09:22:26;;;;;;;;;;;18.90;93.10;;;;;;5089438;28;19919;-55
2023/09/24 09:25:01;;;;;;;;;;;18.90;92.80;;;;;;5072166;28;19920;-53
2023/09/24 09:27:30;;;;;;;;;;;18.90;92.60;;;;;;5089310;28;20029;-54
2023/09/24 09:30:09;;;;;;;;;;;18.90;92.80;;;;;;5075507;28;19912;-55
2023/09/24 09:32:35;;;;;;;;;;;18.90;92.70;;;;;;5087729;28;19912;-55
2023/09/24 09:35:03;;;;;;;;;;;18.90;92.40;;;;;;5093827;28;19908;-55
2023/09/24 09:37:28;;;;;;;;;;;18.90;92.40;;;;;;5093411;28;19916;-54
2023/09/24 09:39:53;;;;;;;;;;;18.90;92.50;;;;;;5080191;28;20065;-54
2023/09/24 09:42:20;;;;;;;;;;;18.90;92.60;;;;;;5071027;28;19912;-55
2023/09/24 09:44:48;;;;;;;;;;;18.90;92.60;;;;;;5085904;28;19912;-56
2023/09/24 09:47:15;;;;;;;;;;;18.90;92.50;;;;;;5087955;28;19919;-56
2023/09/24 09:49:45;;;;;;;;;;;18.80;92.60;;;;;;5083724;28;20046;-55
2023/09/24 09:52:13;;;;;;;;;;;18.90;93.00;;;;;;5073483;28;19919;-56
2023/09/24 09:54:39;;;;;;;;;;;18.90;93.10;;;;;;5091099;28;19919;-54
2023/09/24 09:57:04;;;;;;;;;;;18.90;92.70;;;;;;5086207;28;19912;-53
2023/09/24 09:59:32;;;;;;;;;;;18.90;93.00;;;;;;5087753;28;20399;-56
2023/09/24 10:01:59;;;;;;;;;;;18.90;93.30;;;;;;5090685;28;20011;-52
2023/09/24 10:04:25;;;;;;;;;;;18.90;93.20;;;;;;5093170;28;19915;-55
2023/09/24 10:06:51;;;;;;;;;;;18.90;93.20;;;;;;5065228;28;19920;-53
2023/09/24 10:09:34;;;;;;;;;;;18.90;93.10;;;;;;5073863;28;19908;-55
2023/09/24 10:12:00;;;;;;;;;;;18.90;92.70;;;;;;5080044;28;19923;-53
2023/09/24 10:14:36;;;;;;;;;;;18.90;92.70;;;;;;5097312;28;20303;-53
2023/09/24 10:17:16;;;;;;;;;;;18.90;92.50;;;;;;5096685;28;19944;-55
2023/09/24 10:20:06;;;;;;;;;;;18.90;92.90;;;;;;5097030;28;19996;-56
2023/09/24 10:22:34;;;;;;;;;;;18.90;92.80;;;;;;5071983;28;19913;-56
2023/09/24 10:25:01;;;;;;;;;;;18.90;92.50;;;;;;5056595;28;19909;-54
2023/09/24 10:27:27;;;;;;;;;;;18.90;92.60;;;;;;5056283;28;19962;-57
2023/09/24 10:29:55;;;;;;;;;;;18.90;92.80;;;;;;5080531;28;20015;-54
2023/09/24 10:32:21;;;;;;;;;;;18.90;92.80;;;;;;5072851;28;19924;-56
2023/09/24 10:34:55;;;;;;;;;;;18.90;93.00;;;;;;5078945;28;19913;-55
2023/09/24 10:37:22;;;;;;;;;;;18.90;93.20;;;;;;5075688;28;19912;-55
2023/09/24 10:40:09;;;;;;;;;;;18.90;93.20;;;;;;5088261;28;19954;-56
2023/09/24 10:42:37;;;;;;;;;;;18.90;93.20;;;;;;5078030;28;19908;-56
2023/09/24 10:45:05;;;;;;;;;;;18.90;93.20;;;;;;5080135;28;20019;-56
2023/09/24 10:47:34;;;;;;;;;;;18.90;93.40;;;;;;5094592;28;19920;-55
2023/09/24 10:50:06;;;;;;;;;;;18.90;93.40;;;;;;5071381;28;19947;-54
2023/09/24 10:52:46;;;;;;;;;;;18.90;93.30;;;;;;5088297;28;20007;-56
2023/09/24 10:55:12;;;;;;;;;;;18.90;93.20;;;;;;5084328;28;19913;-56
2023/09/24 10:57:37;;;;;;;;;;;18.90;93.30;;;;;;5104499;28;19995;-56
2023/09/24 11:00:04;;;;;;;;;;;18.90;93.50;;;;;;5095962;28;20351;-55
2023/09/24 11:02:30;;;;;;;;;;;18.90;93.50;;;;;;5095871;28;19999;-56
2023/09/24 11:05:00;;;;;;;;;;;18.90;93.50;;;;;;5091464;28;20448;-56
2023/09/24 11:07:25;;;;;;;;;;;18.90;93.20;;;;;;5075077;28;20061;-56
2023/09/24 11:09:51;;;;;;;;;;;18.90;93.50;;;;;;5095786;28;19957;-56
2023/09/24 11:12:16;;;;;;;;;;;18.90;93.60;;;;;;5095921;28;20260;-56
2023/09/24 11:14:51;;;;;;;;;;;18.90;93.60;;;;;;5095461;28;20001;-54
2023/09/24 11:17:18;;;;;;;;;;;18.90;93.70;;;;;;5086081;28;20014;-54
2023/09/24 11:19:44;;;;;;;;;;;18.90;93.70;;;;;;5090699;28;20357;-56
2023/09/24 11:22:16;;;;;;;;;;;18.90;93.60;;;;;;5071480;28;19912;-56
2023/09/24 11:24:41;;;;;;;;;;;18.90;93.50;;;;;;5095782;28;19951;-55
2023/09/24 11:27:07;;;;;;;;;;;18.90;93.40;;;;;;5077057;28;19916;-56
2023/09/24 11:29:33;;;;;;;;;;;18.90;93.30;;;;;;5074577;28;20367;-56
2023/09/24 11:31:58;;;;;;;;;;;18.90;93.50;;;;;;5074198;28;19916;-55
2023/09/24 11:34:24;;;;;;;;;;;18.90;93.40;;;;;;5079020;28;20382;-56
2023/09/24 11:36:56;;;;;;;;;;;18.90;93.40;;;;;;5087878;28;19914;-54
2023/09/24 11:39:24;;;;;;;;;;;18.90;93.40;;;;;;5087872;28;19912;-56
2023/09/24 11:41:50;;;;;;;;;;;18.90;93.30;;;;;;5057270;28;19909;-56
2023/09/24 11:44:16;;;;;;;;;;;18.90;93.40;;;;;;5057197;28;19915;-56
2023/09/24 11:46:43;;;;;;;;;;;18.90;93.30;;;;;;5057201;28;19908;-56
2023/09/24 11:49:09;;;;;;;;;;;18.90;93.40;;;;;;5055626;28;19920;-56
2023/09/24 11:51:35;;;;;;;;;;;18.90;93.60;;;;;;5073110;28;20454;-56
2023/09/24 11:54:02;;;;;;;;;;;18.90;93.60;;;;;;5072678;28;20046;-55
2023/09/24 11:56:28;;;;;;;;;;;18.90;93.50;;;;;;5072379;28;20372;-57
2023/09/24 11:58:55;;;;;;;;;;;18.90;93.00;;;;;;5072570;28;19908;-55
2023/09/24 12:01:20;;;;;;;;;;;18.90;93.10;;;;;;5071614;28;19995;-54
2023/09/24 12:03:47;;;;;;;;;;;18.90;93.10;;;;;;5072528;28;19912;-54
2023/09/24 12:06:13;;;;;;;;;;;18.90;93.10;;;;;;5072709;28;19909;-56
2023/09/24 12:08:39;;;;;;;;;;;18.90;93.00;;;;;;5074000;28;20266;-55
2023/09/24 12:11:04;;;;;;;;;;;18.90;93.10;;;;;;5073581;28;20009;-54
2023/09/24 12:13:30;;;;;;;;;;;18.90;93.50;;;;;;5074431;28;19920;-55
2023/09/24 12:15:55;;;;;;;;;;;18.90;93.30;;;;;;5074320;28;19908;-55
2023/09/24 12:18:21;;;;;;;;;;;18.90;93.50;;;;;;5074474;28;20359;-56
2023/09/24 12:20:47;;;;;;;;;;;18.90;93.40;;;;;;5055404;28;19914;-56
2023/09/24 12:23:13;;;;;;;;;;;18.90;93.40;;;;;;5073450;28;20003;-56
2023/09/24 12:25:39;;;;;;;;;;;18.90;93.30;;;;;;5074481;28;19988;-53
2023/09/24 12:28:10;;;;;;;;;;;18.90;93.30;;;;;;5073863;28;19992;-57
2023/09/24 12:30:36;;;;;;;;;;;18.90;93.20;;;;;;5073210;28;19920;-54
2023/09/24 12:33:01;;;;;;;;;;;18.90;93.10;;;;;;5073193;28;19917;-54
2023/09/24 12:35:28;;;;;;;;;;;18.90;93.40;;;;;;5073950;28;20457;-55
2023/09/24 12:37:54;;;;;;;;;;;18.90;93.50;;;;;;5073928;28;19999;-52
2023/09/24 12:40:20;;;;;;;;;;;18.90;93.50;;;;;;5074222;28;19955;-54
2023/09/24 12:42:46;;;;;;;;;;;18.90;93.30;;;;;;5073523;28;19908;-55
2023/09/24 12:45:11;;;;;;;;;;;18.90;93.20;;;;;;5073925;28;20149;-56
2023/09/24 12:47:37;;;;;;;;;;;18.90;93.10;;;;;;5074037;28;20292;-54
2023/09/24 12:50:03;;;;;;;;;;;18.90;93.00;;;;;;5035271;28;19933;-54
2023/09/24 12:52:33;;;;;;;;;;;18.90;93.10;;;;;;5049462;28;20209;-56
2023/09/24 12:54:59;;;;;;;;;;;18.90;93.20;;;;;;5090914;28;19913;-50
2023/09/24 12:57:25;;;;;;;;;;;18.90;93.30;;;;;;5062984;28;19922;-56
2023/09/24 12:59:50;;;;;;;;;;;18.90;93.30;;;;;;5067559;28;19996;-55
2023/09/24 13:02:17;;;;;;;;;;;18.90;93.40;;;;;;5058540;28;19912;-53
2023/09/24 13:04:43;;;;;;;;;;;18.90;93.30;;;;;;5053031;28;20344;-56
2023/09/24 13:07:09;;;;;;;;;;;18.90;93.10;;;;;;5073814;28;19909;-53
2023/09/24 13:09:35;;;;;;;;;;;18.90;93.10;;;;;;5061484;28;20293;-54
2023/09/24 13:12:01;;;;;;;;;;;18.90;92.90;;;;;;5059706;28;19916;-51
2023/09/24 13:14:26;;;;;;;;;;;18.90;92.80;;;;;;5061194;28;20068;-56
2023/09/24 13:16:52;;;;;;;;;;;18.90;92.70;;;;;;5065562;28;19913;-55
2023/09/24 13:19:17;;;;;;;;;;;18.90;92.70;;;;;;5064441;28;19965;-56
2023/09/24 13:21:43;;;;;;;;;;;18.90;92.70;;;;;;5073274;28;19908;-56
2023/09/24 13:24:09;;;;;;;;;;;18.90;93.10;;;;;;5055099;28;20356;-57
2023/09/24 13:26:35;;;;;;;;;;;18.90;93.20;;;;;;5061073;28;19912;-55
2023/09/24 13:29:04;;;;;;;;;;;18.90;92.90;;;;;;5061254;28;19935;-56
2023/09/24 13:31:30;;;;;;;;;;;18.90;92.80;;;;;;5054091;28;20786;-56
2023/09/24 13:33:56;;;;;;;;;;;18.90;93.10;;;;;;5062244;28;19995;-57
2023/09/24 13:36:22;;;;;;;;;;;18.90;93.20;;;;;;5068999;28;20382;-56
2023/09/24 13:38:48;;;;;;;;;;;18.90;93.40;;;;;;5067630;28;20491;-56
2023/09/24 13:41:14;;;;;;;;;;;18.90;93.20;;;;;;5060516;28;20402;-55
2023/09/24 13:43:39;;;;;;;;;;;18.90;93.00;;;;;;5060244;28;19952;-53
2023/09/24 13:46:05;;;;;;;;;;;18.90;93.10;;;;;;5069073;28;19916;-53
2023/09/24 13:48:30;;;;;;;;;;;18.90;93.20;;;;;;5073447;28;19966;-56
2023/09/24 13:50:56;;;;;;;;;;;18.90;93.20;;;;;;5073168;28;19958;-55
2023/09/24 13:53:21;;;;;;;;;;;18.90;93.10;;;;;;5075810;28;19916;-55
2023/09/24 13:55:50;;;;;;;;;;;18.90;93.20;;;;;;5060705;28;19917;-54
2023/09/24 13:58:16;;;;;;;;;;;18.90;93.10;;;;;;5058990;28;19909;-56
2023/09/24 14:00:47;;;;;;;;;;;18.90;93.10;;;;;;5078710;28;20011;-55
2023/09/24 14:03:13;;;;;;;;;;;18.90;93.20;;;;;;5079186;28;19916;-55
2023/09/24 14:05:39;;;;;;;;;;;18.90;92.90;;;;;;5076996;28;19919;-55
2023/09/24 14:13:32;;;;;;;;;;;18.90;92.80;;;;;;5076662;28;19923;-51
2023/09/24 14:15:58;;;;;;;;;;;18.90;92.60;;;;;;5076862;28;20036;-56
2023/09/24 14:18:23;;;;;;;;;;;18.90;92.50;;;;;;5084980;28;19957;-57